createdAt,value
2019-05-22T00:00:55.956Z,0.00
2019-05-22T00:01:55.882Z,0.00
2019-05-22T00:02:55.905Z,0.00
2019-05-22T00:03:55.750Z,0.00
2019-05-22T00:04:55.682Z,0.00
2019-05-22T00:05:55.609Z,0.00
2019-05-22T00:06:55.545Z,0.00
2019-05-22T00:07:55.476Z,0.00
2019-05-22T00:08:55.410Z,0.00
2019-05-22T00:09:55.345Z,0.00
2019-05-22T00:10:55.279Z,0.00
2019-05-22T00:11:55.208Z,0.00
2019-05-22T00:12:55.139Z,0.00
2019-05-22T00:13:55.065Z,0.00
2019-05-22T00:14:54.999Z,0.00
2019-05-22T00:15:54.931Z,0.00
2019-05-22T00:16:54.863Z,0.00
2019-05-22T00:17:54.796Z,0.00
2019-05-22T00:18:54.725Z,0.00
2019-05-22T00:19:54.667Z,0.00
2019-05-22T00:20:54.589Z,0.00
2019-05-22T00:21:54.526Z,0.00
2019-05-22T00:22:54.453Z,0.00
2019-05-22T00:23:54.383Z,0.00
2019-05-22T00:24:54.316Z,0.00
2019-05-22T00:25:54.250Z,0.00
2019-05-22T00:26:54.193Z,0.00
2019-05-22T00:27:54.108Z,0.00
2019-05-22T00:28:54.042Z,0.00
2019-05-22T00:29:53.976Z,0.00
2019-05-22T00:30:53.909Z,0.00
2019-05-22T00:31:53.840Z,0.00
2019-05-22T00:32:53.765Z,0.00
2019-05-22T00:33:53.703Z,0.00
2019-05-22T00:34:53.630Z,0.00
2019-05-22T00:35:53.566Z,0.00
2019-05-22T00:36:53.496Z,0.00
2019-05-22T00:37:53.428Z,0.00
2019-05-22T00:38:53.359Z,0.00
2019-05-22T00:39:53.292Z,0.00
2019-05-22T00:40:53.225Z,0.00
2019-05-22T00:41:53.152Z,0.00
2019-05-22T00:43:03.388Z,0.00
2019-05-22T00:43:53.015Z,0.00
2019-05-22T00:44:52.944Z,0.00
2019-05-22T00:45:52.878Z,0.00
2019-05-22T00:46:52.809Z,0.00
2019-05-22T00:47:52.738Z,0.00
2019-05-22T00:48:52.675Z,0.00
2019-05-22T00:49:52.607Z,0.00
2019-05-22T00:50:52.577Z,0.00
2019-05-22T00:51:52.464Z,0.00
2019-05-22T00:52:52.402Z,0.00
2019-05-22T00:53:52.331Z,0.00
2019-05-22T00:54:52.284Z,0.00
2019-05-22T00:55:52.197Z,0.00
2019-05-22T00:56:52.124Z,0.00
2019-05-22T00:57:52.056Z,0.00
2019-05-22T00:58:52.003Z,0.00
2019-05-22T00:59:51.922Z,0.00
2019-05-22T01:00:51.848Z,0.00
2019-05-22T01:01:51.779Z,0.00
2019-05-22T01:02:51.712Z,0.00
2019-05-22T01:03:51.644Z,0.00
2019-05-22T01:04:51.575Z,0.00
2019-05-22T01:05:51.522Z,0.00
2019-05-22T01:06:51.448Z,0.00
2019-05-22T01:07:51.384Z,0.00
2019-05-22T01:08:51.318Z,0.00
2019-05-22T01:09:51.312Z,0.00
2019-05-22T01:10:51.163Z,0.00
2019-05-22T01:11:51.099Z,0.00
2019-05-22T01:12:51.088Z,0.00
2019-05-22T01:13:50.949Z,0.00
2019-05-22T01:14:50.882Z,0.00
2019-05-22T01:15:50.825Z,0.00
2019-05-22T01:16:50.795Z,0.00
2019-05-22T01:17:50.866Z,0.00
2019-05-22T01:18:50.616Z,0.00
2019-05-22T01:19:50.540Z,0.00
2019-05-22T01:20:50.471Z,0.00
2019-05-22T01:21:50.408Z,0.00
2019-05-22T01:22:50.334Z,0.00
2019-05-22T01:23:50.268Z,0.00
2019-05-22T01:24:50.216Z,0.00
2019-05-22T01:25:50.127Z,0.00
2019-05-22T01:26:50.056Z,0.00
2019-05-22T01:27:49.992Z,0.00
2019-05-22T01:28:49.927Z,0.00
2019-05-22T01:29:49.856Z,0.00
2019-05-22T01:30:49.783Z,0.00
2019-05-22T01:31:49.739Z,0.00
2019-05-22T01:32:49.738Z,0.00
2019-05-22T01:33:49.582Z,0.00
2019-05-22T01:34:49.512Z,0.00
2019-05-22T01:35:49.443Z,0.00
2019-05-22T01:36:49.369Z,0.00
2019-05-22T01:37:49.297Z,0.00
2019-05-22T01:38:49.232Z,0.00
2019-05-22T01:39:49.166Z,0.00
2019-05-22T01:40:49.095Z,0.00
2019-05-22T01:41:49.028Z,0.00
2019-05-22T01:42:48.958Z,0.00
2019-05-22T01:43:48.889Z,0.00
2019-05-22T01:45:01.686Z,0.00
2019-05-22T01:45:48.750Z,0.00
2019-05-22T01:46:48.688Z,0.00
2019-05-22T01:47:48.646Z,0.00
2019-05-22T01:48:48.543Z,0.00
2019-05-22T01:49:48.471Z,0.00
2019-05-22T01:50:48.410Z,0.00
2019-05-22T01:51:48.335Z,0.00
2019-05-22T01:52:48.271Z,0.00
2019-05-22T01:53:48.198Z,0.00
2019-05-22T01:54:48.130Z,0.00
2019-05-22T01:55:48.055Z,0.00
2019-05-22T01:56:47.992Z,0.00
2019-05-22T01:57:47.922Z,0.00
2019-05-22T01:58:47.856Z,0.00
2019-05-22T01:59:47.780Z,0.00
2019-05-22T02:00:47.716Z,0.00
2019-05-22T02:01:47.648Z,0.00
2019-05-22T02:02:47.580Z,0.00
2019-05-22T02:03:47.511Z,0.00
2019-05-22T02:04:47.460Z,0.00
2019-05-22T02:05:47.370Z,0.00
2019-05-22T02:06:47.346Z,0.00
2019-05-22T02:07:47.230Z,0.00
2019-05-22T02:08:47.167Z,0.00
2019-05-22T02:09:47.099Z,0.00
2019-05-22T02:10:47.040Z,0.00
2019-05-22T02:11:46.959Z,0.00
2019-05-22T02:12:46.894Z,0.00
2019-05-22T02:13:46.820Z,0.00
2019-05-22T02:14:46.761Z,0.00
2019-05-22T02:15:46.683Z,0.00
2019-05-22T02:16:56.002Z,0.00
2019-05-22T02:17:46.540Z,0.00
2019-05-22T02:18:46.475Z,0.00
2019-05-22T02:19:46.407Z,0.00
2019-05-22T02:20:46.338Z,0.00
2019-05-22T02:21:46.268Z,0.00
2019-05-22T02:22:46.200Z,0.00
2019-05-22T02:23:46.130Z,0.00
2019-05-22T02:24:46.062Z,0.00
2019-05-22T02:25:45.992Z,0.00
2019-05-22T02:26:45.926Z,0.00
2019-05-22T02:27:45.855Z,0.00
2019-05-22T02:28:45.788Z,0.00
2019-05-22T02:29:45.730Z,0.00
2019-05-22T02:30:45.747Z,0.00
2019-05-22T02:31:45.581Z,0.00
2019-05-22T02:32:45.511Z,0.00
2019-05-22T02:33:45.443Z,0.00
2019-05-22T02:34:45.373Z,0.00
2019-05-22T02:35:45.311Z,0.00
2019-05-22T02:36:45.236Z,0.00
2019-05-22T02:37:45.166Z,0.00
2019-05-22T02:38:45.173Z,0.00
2019-05-22T02:39:45.060Z,0.00
2019-05-22T02:40:44.958Z,0.00
2019-05-22T02:41:44.887Z,0.00
2019-05-22T02:42:44.822Z,0.00
2019-05-22T02:43:44.757Z,0.00
2019-05-22T02:44:44.683Z,0.00
2019-05-22T02:45:44.614Z,0.00
2019-05-22T02:46:44.543Z,0.00
2019-05-22T02:47:44.485Z,0.00
2019-05-22T02:48:44.422Z,0.00
2019-05-22T02:49:44.357Z,0.00
2019-05-22T02:50:44.269Z,0.00
2019-05-22T02:51:44.209Z,0.00
2019-05-22T02:52:44.131Z,0.00
2019-05-22T02:53:44.064Z,0.00
2019-05-22T02:54:43.997Z,0.00
2019-05-22T02:55:43.929Z,0.00
2019-05-22T02:56:43.850Z,0.00
2019-05-22T02:57:43.787Z,0.00
2019-05-22T02:58:43.719Z,0.00
2019-05-22T02:59:43.653Z,0.00
2019-05-22T03:00:43.582Z,0.00
2019-05-22T03:01:43.508Z,0.00
2019-05-22T03:02:43.447Z,0.00
2019-05-22T03:03:43.372Z,0.00
2019-05-22T03:04:43.302Z,0.00
2019-05-22T03:05:43.232Z,0.00
2019-05-22T03:06:43.172Z,0.00
2019-05-22T03:07:43.093Z,0.00
2019-05-22T03:08:43.028Z,0.00
2019-05-22T03:09:46.567Z,0.00
2019-05-22T03:10:42.902Z,0.00
2019-05-22T03:11:42.818Z,0.00
2019-05-22T03:12:42.755Z,0.00
2019-05-22T03:13:42.696Z,0.00
2019-05-22T03:14:42.615Z,0.00
2019-05-22T03:15:42.545Z,0.00
2019-05-22T03:16:42.480Z,0.00
2019-05-22T03:17:42.407Z,0.00
2019-05-22T03:18:42.337Z,0.00
2019-05-22T03:19:42.283Z,0.00
2019-05-22T03:20:42.221Z,0.00
2019-05-22T03:21:42.128Z,0.00
2019-05-22T03:22:42.076Z,0.00
2019-05-22T03:23:41.995Z,0.00
2019-05-22T03:24:41.924Z,0.00
2019-05-22T03:25:41.848Z,0.00
2019-05-22T03:26:41.786Z,0.00
2019-05-22T03:27:41.718Z,0.00
2019-05-22T03:28:41.647Z,0.00
2019-05-22T03:29:41.578Z,0.00
2019-05-22T03:30:41.513Z,0.00
2019-05-22T03:31:41.454Z,0.00
2019-05-22T03:32:43.876Z,0.00
2019-05-22T03:33:41.313Z,0.00
2019-05-22T03:34:41.234Z,0.00
2019-05-22T03:35:41.178Z,0.00
2019-05-22T03:36:41.089Z,0.00
2019-05-22T03:37:41.027Z,0.00
2019-05-22T03:38:40.960Z,0.00
2019-05-22T03:39:40.894Z,0.00
2019-05-22T03:40:40.821Z,0.00
2019-05-22T03:41:40.758Z,0.00
2019-05-22T03:42:40.683Z,0.00
2019-05-22T03:43:40.611Z,0.00
2019-05-22T03:44:40.549Z,0.00
2019-05-22T03:45:40.475Z,0.00
2019-05-22T03:46:40.405Z,0.00
2019-05-22T03:47:40.340Z,0.00
2019-05-22T03:48:40.266Z,0.00
2019-05-22T03:49:40.196Z,0.00
2019-05-22T03:50:40.133Z,0.00
2019-05-22T03:51:40.063Z,0.00
2019-05-22T03:52:39.990Z,0.00
2019-05-22T03:53:39.923Z,0.00
2019-05-22T03:54:39.853Z,0.00
2019-05-22T03:55:39.783Z,0.00
2019-05-22T03:56:39.717Z,0.00
2019-05-22T03:57:39.654Z,0.00
2019-05-22T03:58:39.577Z,0.00
2019-05-22T03:59:39.510Z,0.00
2019-05-22T04:00:43.326Z,0.00
2019-05-22T04:01:39.371Z,0.00
2019-05-22T04:02:39.309Z,0.00
2019-05-22T04:03:39.247Z,0.00
2019-05-22T04:04:39.177Z,0.00
2019-05-22T04:05:39.090Z,0.00
2019-05-22T04:06:39.021Z,0.00
2019-05-22T04:07:38.980Z,4.00
2019-05-22T04:08:38.887Z,4.00
2019-05-22T04:09:38.813Z,4.00
2019-05-22T04:10:41.145Z,4.00
2019-05-22T04:11:38.684Z,4.00
2019-05-22T04:12:38.609Z,0.00
2019-05-22T04:13:38.550Z,0.00
2019-05-22T04:14:38.482Z,4.00
2019-05-22T04:15:38.404Z,4.00
2019-05-22T04:16:38.336Z,4.00
2019-05-22T04:17:38.271Z,4.00
2019-05-22T04:18:38.194Z,4.00
2019-05-22T04:19:49.296Z,4.00
2019-05-22T04:20:38.050Z,4.00
2019-05-22T04:21:37.979Z,8.00
2019-05-22T04:22:37.912Z,12.00
2019-05-22T04:23:37.844Z,8.00
2019-05-22T04:24:37.771Z,12.00
2019-05-22T04:25:37.706Z,16.00
2019-05-22T04:26:37.634Z,16.00
2019-05-22T04:27:37.563Z,20.00
2019-05-22T04:28:37.508Z,20.00
2019-05-22T04:29:37.426Z,24.00
2019-05-22T04:30:37.357Z,28.00
2019-05-22T04:31:37.289Z,32.00
2019-05-22T04:32:37.223Z,36.00
2019-05-22T04:33:37.158Z,44.00
2019-05-22T04:34:37.076Z,48.00
2019-05-22T04:35:37.017Z,52.00
2019-05-22T04:36:36.970Z,56.00
2019-05-22T04:37:36.872Z,64.00
2019-05-22T04:38:36.798Z,72.00
2019-05-22T04:39:36.734Z,80.00
2019-05-22T04:40:36.662Z,88.00
2019-05-22T04:41:36.591Z,96.00
2019-05-22T04:42:36.526Z,104.00
2019-05-22T04:43:36.455Z,112.00
2019-05-22T04:44:36.385Z,124.00
2019-05-22T04:45:36.324Z,132.00
2019-05-22T04:46:36.244Z,140.00
2019-05-22T04:47:36.178Z,152.00
2019-05-22T04:48:36.108Z,164.00
2019-05-22T04:49:36.040Z,172.00
2019-05-22T04:50:35.967Z,184.00
2019-05-22T04:51:35.895Z,200.00
2019-05-22T04:52:35.829Z,212.00
2019-05-22T04:53:35.759Z,224.00
2019-05-22T04:54:35.688Z,240.00
2019-05-22T04:55:35.621Z,252.00
2019-05-22T04:56:35.550Z,268.00
2019-05-22T04:57:35.482Z,292.00
2019-05-22T04:58:35.414Z,308.00
2019-05-22T04:59:35.342Z,324.00
2019-05-22T05:00:35.311Z,348.00
2019-05-22T05:01:35.211Z,368.00
2019-05-22T05:02:35.129Z,392.00
2019-05-22T05:03:35.067Z,416.00
2019-05-22T05:04:34.994Z,440.00
2019-05-22T05:05:34.923Z,464.00
2019-05-22T05:06:34.867Z,492.00
2019-05-22T05:07:34.785Z,524.00
2019-05-22T05:08:34.713Z,548.00
2019-05-22T05:09:34.645Z,580.00
2019-05-22T05:10:34.575Z,612.00
2019-05-22T05:11:34.502Z,648.00
2019-05-22T05:12:34.454Z,680.00
2019-05-22T05:13:34.368Z,716.00
2019-05-22T05:14:34.298Z,748.00
2019-05-22T05:15:37.132Z,780.00
2019-05-22T05:16:34.157Z,820.00
2019-05-22T05:17:34.086Z,860.00
2019-05-22T05:18:34.012Z,900.00
2019-05-22T05:19:33.955Z,944.00
2019-05-22T05:20:33.876Z,984.00
2019-05-22T05:21:33.824Z,1024.00
2019-05-22T05:22:33.737Z,1068.00
2019-05-22T05:23:33.711Z,1116.00
2019-05-22T05:24:33.599Z,1160.00
2019-05-22T05:25:33.531Z,1204.00
2019-05-22T05:26:33.460Z,1248.00
2019-05-22T05:27:33.404Z,1300.00
2019-05-22T05:28:33.320Z,1352.00
2019-05-22T05:29:33.255Z,1408.00
2019-05-22T05:30:33.184Z,1460.00
2019-05-22T05:31:33.115Z,1520.00
2019-05-22T05:32:33.045Z,1564.00
2019-05-22T05:33:32.975Z,1620.00
2019-05-22T05:34:32.913Z,1672.00
2019-05-22T05:35:32.834Z,1724.00
2019-05-22T05:36:32.770Z,1772.00
2019-05-22T05:37:32.700Z,1828.00
2019-05-22T05:38:32.631Z,1884.00
2019-05-22T05:39:32.560Z,1932.00
2019-05-22T05:40:32.491Z,1980.00
2019-05-22T05:41:32.426Z,2028.00
2019-05-22T05:42:32.358Z,2080.00
2019-05-22T05:43:32.293Z,2128.00
2019-05-22T05:44:32.216Z,2176.00
2019-05-22T05:45:32.147Z,2220.00
2019-05-22T05:46:32.099Z,2260.00
2019-05-22T05:47:32.021Z,2308.00
2019-05-22T05:48:31.937Z,2360.00
2019-05-22T05:49:31.891Z,2408.00
2019-05-22T05:50:39.716Z,2456.00
2019-05-22T05:51:31.739Z,2512.00
2019-05-22T05:52:31.672Z,2564.00
2019-05-22T05:53:31.596Z,2624.00
2019-05-22T05:54:31.544Z,2684.00
2019-05-22T05:55:31.463Z,2796.00
2019-05-22T05:56:31.393Z,3348.00
2019-05-22T05:57:31.329Z,3332.00
2019-05-22T05:58:31.269Z,2860.00
2019-05-22T05:59:31.186Z,2884.00
2019-05-22T06:00:31.116Z,2932.00
2019-05-22T06:01:31.045Z,2980.00
2019-05-22T06:02:30.981Z,3016.00
2019-05-22T06:03:30.914Z,3044.00
2019-05-22T06:04:35.331Z,3072.00
2019-05-22T06:05:30.777Z,3104.00
2019-05-22T06:06:30.716Z,3132.00
2019-05-22T06:07:30.642Z,3168.00
2019-05-22T06:08:30.568Z,3200.00
2019-05-22T06:09:30.505Z,3240.00
2019-05-22T06:10:30.434Z,3284.00
2019-05-22T06:11:31.025Z,3324.00
2019-05-22T06:12:30.296Z,3368.00
2019-05-22T06:13:30.239Z,3408.00
2019-05-22T06:14:30.731Z,3456.00
2019-05-22T06:15:45.620Z,3512.00
2019-05-22T06:16:33.140Z,3572.00
2019-05-22T06:17:30.004Z,3632.00
2019-05-22T06:18:29.897Z,3684.00
2019-05-22T06:19:30.221Z,3652.00
2019-05-22T06:20:29.751Z,3700.00
2019-05-22T06:21:29.693Z,3760.00
2019-05-22T06:22:29.619Z,3844.00
2019-05-22T06:23:29.548Z,3920.00
2019-05-22T06:24:29.480Z,3820.00
2019-05-22T06:25:29.420Z,3808.00
2019-05-22T06:26:29.344Z,3832.00
2019-05-22T06:27:29.278Z,3864.00
2019-05-22T06:28:29.208Z,3892.00
2019-05-22T06:29:29.299Z,3916.00
2019-05-22T06:30:29.075Z,3956.00
2019-05-22T06:31:29.009Z,3980.00
2019-05-22T06:32:29.005Z,4012.00
2019-05-22T06:33:28.869Z,4040.00
2019-05-22T06:34:28.806Z,4064.00
2019-05-22T06:35:28.734Z,4096.00
2019-05-22T06:36:28.666Z,4120.00
2019-05-22T06:37:28.600Z,4144.00
2019-05-22T06:38:28.621Z,4172.00
2019-05-22T06:39:28.465Z,4192.00
2019-05-22T06:40:28.401Z,4224.00
2019-05-22T06:41:28.340Z,4236.00
2019-05-22T06:42:28.262Z,4256.00
2019-05-22T06:43:28.200Z,4280.00
2019-05-22T06:44:28.129Z,4304.00
2019-05-22T06:45:28.062Z,4324.00
2019-05-22T06:46:28.009Z,4340.00
2019-05-22T06:47:27.926Z,4368.00
2019-05-22T06:48:27.863Z,4396.00
2019-05-22T06:49:27.793Z,4412.00
2019-05-22T06:50:27.731Z,4448.00
2019-05-22T06:51:27.671Z,4480.00
2019-05-22T06:52:27.593Z,4508.00
2019-05-22T06:53:27.522Z,4520.00
2019-05-22T06:54:27.459Z,4544.00
2019-05-22T06:55:27.390Z,4568.00
2019-05-22T06:56:27.322Z,4576.00
2019-05-22T06:57:27.306Z,4600.00
2019-05-22T06:58:27.189Z,4612.00
2019-05-22T06:59:27.137Z,4612.00
2019-05-22T07:00:27.050Z,4620.00
2019-05-22T07:01:26.987Z,4636.00
2019-05-22T07:02:26.939Z,4652.00
2019-05-22T07:03:26.855Z,4668.00
2019-05-22T07:04:26.796Z,4684.00
2019-05-22T07:05:26.719Z,4696.00
2019-05-22T07:06:26.653Z,4720.00
2019-05-22T07:07:26.585Z,4728.00
2019-05-22T07:08:26.523Z,4740.00
2019-05-22T07:09:26.451Z,4756.00
2019-05-22T07:10:26.383Z,4768.00
2019-05-22T07:11:26.318Z,4772.00
2019-05-22T07:12:26.268Z,4796.00
2019-05-22T07:13:26.237Z,4796.00
2019-05-22T07:14:26.159Z,4804.00
2019-05-22T07:15:26.057Z,4820.00
2019-05-22T07:16:25.983Z,4832.00
2019-05-22T07:17:25.917Z,4836.00
2019-05-22T07:18:25.855Z,4852.00
2019-05-22T07:19:25.840Z,4864.00
2019-05-22T07:20:25.729Z,4876.00
2019-05-22T07:21:33.723Z,4888.00
2019-05-22T07:22:25.584Z,4908.00
2019-05-22T07:23:25.517Z,4912.00
2019-05-22T07:24:25.497Z,4936.00
2019-05-22T07:25:25.382Z,4944.00
2019-05-22T07:26:25.315Z,4952.00
2019-05-22T07:27:25.253Z,4948.00
2019-05-22T07:28:25.183Z,4952.00
2019-05-22T07:29:25.140Z,4960.00
2019-05-22T07:30:25.048Z,4968.00
2019-05-22T07:31:24.983Z,4972.00
2019-05-22T07:32:24.926Z,4988.00
2019-05-22T07:33:24.854Z,4992.00
2019-05-22T07:34:24.781Z,5000.00
2019-05-22T07:35:24.726Z,5004.00
2019-05-22T07:36:24.648Z,5008.00
2019-05-22T07:37:24.584Z,5008.00
2019-05-22T07:38:24.512Z,5020.00
2019-05-22T07:39:24.491Z,5020.00
2019-05-22T07:40:24.389Z,5032.00
2019-05-22T07:41:24.316Z,5040.00
2019-05-22T07:42:24.254Z,5032.00
2019-05-22T07:43:24.184Z,5048.00
2019-05-22T07:44:24.115Z,5052.00
2019-05-22T07:45:24.053Z,5060.00
2019-05-22T07:46:23.988Z,5064.00
2019-05-22T07:47:23.949Z,5076.00
2019-05-22T07:48:23.849Z,5072.00
2019-05-22T07:49:23.788Z,5068.00
2019-05-22T07:50:23.719Z,5064.00
2019-05-22T07:51:23.652Z,5068.00
2019-05-22T07:52:23.588Z,5072.00
2019-05-22T07:53:23.518Z,5072.00
2019-05-22T07:54:23.459Z,5068.00
2019-05-22T07:55:23.390Z,5072.00
2019-05-22T07:56:23.330Z,5064.00
2019-05-22T07:57:23.265Z,5076.00
2019-05-22T07:58:23.187Z,5068.00
2019-05-22T07:59:23.122Z,5080.00
2019-05-22T08:00:23.054Z,5084.00
2019-05-22T08:01:22.991Z,5080.00
2019-05-22T08:02:22.921Z,5084.00
2019-05-22T08:03:22.853Z,5096.00
2019-05-22T08:04:22.786Z,5088.00
2019-05-22T08:05:22.726Z,5080.00
2019-05-22T08:06:22.658Z,5088.00
2019-05-22T08:07:22.594Z,5080.00
2019-05-22T08:08:22.527Z,5088.00
2019-05-22T08:09:22.459Z,5080.00
2019-05-22T08:10:22.398Z,5084.00
2019-05-22T08:11:22.325Z,5076.00
2019-05-22T08:12:22.255Z,5052.00
2019-05-22T08:13:22.188Z,5052.00
2019-05-22T08:14:22.138Z,5032.00
2019-05-22T08:15:22.063Z,5032.00
2019-05-22T08:16:21.990Z,5076.00
2019-05-22T08:17:21.939Z,5076.00
2019-05-22T08:18:21.866Z,5072.00
2019-05-22T08:19:21.792Z,5072.00
2019-05-22T08:20:21.733Z,5068.00
2019-05-22T08:21:23.683Z,5064.00
2019-05-22T08:22:21.599Z,5064.00
2019-05-22T08:23:21.531Z,5056.00
2019-05-22T08:24:21.461Z,5048.00
2019-05-22T08:25:21.414Z,5032.00
2019-05-22T08:26:21.328Z,5044.00
2019-05-22T08:27:21.258Z,5012.00
2019-05-22T08:28:21.199Z,4976.00
2019-05-22T08:29:21.125Z,5004.00
2019-05-22T08:30:21.063Z,4988.00
2019-05-22T08:31:21.272Z,5032.00
2019-05-22T08:32:20.931Z,5008.00
2019-05-22T08:33:20.873Z,5012.00
2019-05-22T08:34:20.810Z,5004.00
2019-05-22T08:35:20.740Z,4984.00
2019-05-22T08:36:20.686Z,5000.00
2019-05-22T08:37:20.604Z,4996.00
2019-05-22T08:38:20.538Z,4972.00
2019-05-22T08:39:20.469Z,4940.00
2019-05-22T08:40:20.399Z,4952.00
2019-05-22T08:41:20.347Z,4944.00
2019-05-22T08:42:20.270Z,4924.00
2019-05-22T08:43:20.210Z,4904.00
2019-05-22T08:44:20.137Z,4936.00
2019-05-22T08:45:20.081Z,4896.00
2019-05-22T08:46:20.005Z,4912.00
2019-05-22T08:47:19.939Z,4924.00
2019-05-22T08:48:19.889Z,4916.00
2019-05-22T08:49:19.805Z,4916.00
2019-05-22T08:50:19.744Z,4888.00
2019-05-22T08:51:19.674Z,4872.00
2019-05-22T08:52:23.576Z,4868.00
2019-05-22T08:53:19.542Z,4872.00
2019-05-22T08:54:19.477Z,4868.00
2019-05-22T08:55:19.412Z,4852.00
2019-05-22T08:56:19.359Z,4852.00
2019-05-22T08:57:19.280Z,4840.00
2019-05-22T08:58:19.213Z,4828.00
2019-05-22T08:59:20.231Z,4816.00
2019-05-22T09:00:19.080Z,4800.00
2019-05-22T09:01:19.025Z,4780.00
2019-05-22T09:02:18.950Z,4776.00
2019-05-22T09:03:18.887Z,4780.00
2019-05-22T09:04:18.818Z,4772.00
2019-05-22T09:05:21.471Z,4752.00
2019-05-22T09:06:18.744Z,4748.00
2019-05-22T09:07:18.638Z,4736.00
2019-05-22T09:08:18.566Z,4736.00
2019-05-22T09:09:18.491Z,4728.00
2019-05-22T09:10:18.427Z,4728.00
2019-05-22T09:11:18.413Z,4716.00
2019-05-22T09:12:18.291Z,4696.00
2019-05-22T09:13:18.226Z,4688.00
2019-05-22T09:14:18.216Z,4668.00
2019-05-22T09:15:18.160Z,4652.00
2019-05-22T09:16:18.034Z,4640.00
2019-05-22T09:17:17.964Z,4504.00
2019-05-22T09:18:17.898Z,4484.00
2019-05-22T09:19:17.832Z,4516.00
2019-05-22T09:20:17.769Z,4496.00
2019-05-22T09:21:17.712Z,4496.00
2019-05-22T09:22:17.636Z,4484.00
2019-05-22T09:23:17.567Z,4476.00
2019-05-22T09:24:17.517Z,4456.00
2019-05-22T09:25:17.469Z,4464.00
2019-05-22T09:26:17.381Z,4448.00
2019-05-22T09:27:17.311Z,4440.00
2019-05-22T09:28:17.254Z,4416.00
2019-05-22T09:29:17.180Z,4392.00
2019-05-22T09:30:17.109Z,4396.00
2019-05-22T09:31:17.050Z,4384.00
2019-05-22T09:32:16.980Z,4360.00
2019-05-22T09:33:16.917Z,4360.00
2019-05-22T09:34:16.851Z,4356.00
2019-05-22T09:35:16.789Z,4344.00
2019-05-22T09:36:16.734Z,4332.00
2019-05-22T09:37:16.652Z,4316.00
2019-05-22T09:38:16.590Z,4308.00
2019-05-22T09:39:16.523Z,4292.00
2019-05-22T09:40:16.457Z,4272.00
2019-05-22T09:41:16.406Z,4268.00
2019-05-22T09:42:16.369Z,4256.00
2019-05-22T09:43:16.260Z,4252.00
2019-05-22T09:44:16.199Z,4228.00
2019-05-22T09:45:16.168Z,4224.00
2019-05-22T09:46:16.066Z,4196.00
2019-05-22T09:47:15.995Z,4192.00
2019-05-22T09:48:15.947Z,4184.00
2019-05-22T09:49:15.873Z,4168.00
2019-05-22T09:50:15.805Z,4152.00
2019-05-22T09:51:15.737Z,4120.00
2019-05-22T09:52:15.668Z,4136.00
2019-05-22T09:53:15.606Z,4124.00
2019-05-22T09:54:15.539Z,4108.00
2019-05-22T09:55:15.477Z,4096.00
2019-05-22T09:56:15.424Z,4084.00
2019-05-22T09:57:15.374Z,4060.00
2019-05-22T09:58:15.278Z,4056.00
2019-05-22T09:59:15.216Z,4060.00
2019-05-22T10:00:15.142Z,4060.00
2019-05-22T10:01:15.081Z,4028.00
2019-05-22T10:02:15.015Z,4008.00
2019-05-22T10:03:14.949Z,4000.00
2019-05-22T10:04:14.885Z,3984.00
2019-05-22T10:05:14.820Z,3968.00
2019-05-22T10:06:14.752Z,3976.00
2019-05-22T10:07:14.691Z,3956.00
2019-05-22T10:08:14.623Z,3928.00
2019-05-22T10:09:14.565Z,3916.00
2019-05-22T10:10:14.495Z,3888.00
2019-05-22T10:11:14.425Z,3884.00
2019-05-22T10:12:14.366Z,3856.00
2019-05-22T10:13:14.331Z,3852.00
2019-05-22T10:14:14.242Z,3836.00
2019-05-22T10:15:14.165Z,3820.00
2019-05-22T10:16:14.101Z,3804.00
2019-05-22T10:17:14.033Z,3788.00
2019-05-22T10:18:13.972Z,3780.00
2019-05-22T10:19:13.907Z,3780.00
2019-05-22T10:20:13.835Z,3736.00
2019-05-22T10:21:13.773Z,3748.00
2019-05-22T10:22:13.709Z,3752.00
2019-05-22T10:23:15.854Z,3724.00
2019-05-22T10:24:13.605Z,3704.00
2019-05-22T10:25:16.181Z,3684.00
2019-05-22T10:26:13.448Z,3680.00
2019-05-22T10:27:13.382Z,3672.00
2019-05-22T10:28:13.319Z,3648.00
2019-05-22T10:29:13.253Z,3644.00
2019-05-22T10:30:13.213Z,3628.00
2019-05-22T10:31:15.294Z,3612.00
2019-05-22T10:32:13.053Z,3588.00
2019-05-22T10:33:13.017Z,3580.00
2019-05-22T10:34:12.922Z,3564.00
2019-05-22T10:35:12.859Z,3548.00
2019-05-22T10:36:12.798Z,3532.00
2019-05-22T10:37:12.730Z,3508.00
2019-05-22T10:38:12.711Z,3492.00
2019-05-22T10:39:12.597Z,3476.00
2019-05-22T10:40:12.531Z,3452.00
2019-05-22T10:41:12.469Z,3436.00
2019-05-22T10:42:12.402Z,3436.00
2019-05-22T10:43:12.338Z,3416.00
2019-05-22T10:44:12.270Z,3388.00
2019-05-22T10:45:12.230Z,3368.00
2019-05-22T10:46:12.217Z,3344.00
2019-05-22T10:47:12.076Z,3328.00
2019-05-22T10:48:12.011Z,3312.00
2019-05-22T10:49:11.943Z,3296.00
2019-05-22T10:50:11.888Z,3272.00
2019-05-22T10:51:11.817Z,3256.00
2019-05-22T10:52:11.753Z,3236.00
2019-05-22T10:53:11.683Z,3216.00
2019-05-22T10:54:11.617Z,3200.00
2019-05-22T10:55:11.553Z,3180.00
2019-05-22T10:56:11.502Z,3168.00
2019-05-22T10:57:11.442Z,3144.00
2019-05-22T10:58:11.357Z,3136.00
2019-05-22T10:59:11.298Z,3116.00
2019-05-22T11:00:11.237Z,3096.00
2019-05-22T11:01:11.157Z,3080.00
2019-05-22T11:02:11.093Z,3060.00
2019-05-22T11:03:11.031Z,3028.00
2019-05-22T11:04:10.968Z,3020.00
2019-05-22T11:05:10.902Z,3000.00
2019-05-22T11:06:10.876Z,2984.00
2019-05-22T11:07:10.771Z,2972.00
2019-05-22T11:08:10.711Z,2956.00
2019-05-22T11:09:10.640Z,2944.00
2019-05-22T11:10:10.577Z,2928.00
2019-05-22T11:11:10.513Z,2904.00
2019-05-22T11:12:10.444Z,2884.00
2019-05-22T11:13:10.379Z,2864.00
2019-05-22T11:14:10.311Z,2848.00
2019-05-22T11:15:10.248Z,2836.00
2019-05-22T11:16:10.218Z,2820.00
2019-05-22T11:17:10.127Z,2804.00
2019-05-22T11:18:10.054Z,2788.00
2019-05-22T11:19:09.990Z,2772.00
2019-05-22T11:20:09.927Z,2772.00
2019-05-22T11:21:09.855Z,2756.00
2019-05-22T11:22:09.791Z,2736.00
2019-05-22T11:23:09.727Z,2724.00
2019-05-22T11:24:09.677Z,2720.00
2019-05-22T11:25:09.599Z,2712.00
2019-05-22T11:26:09.539Z,2716.00
2019-05-22T11:27:09.467Z,2700.00
2019-05-22T11:28:09.404Z,2684.00
2019-05-22T11:29:09.338Z,2660.00
2019-05-22T11:30:09.289Z,2660.00
2019-05-22T11:31:09.211Z,2652.00
2019-05-22T11:32:09.139Z,2648.00
2019-05-22T11:33:09.140Z,2636.00
2019-05-22T11:34:09.015Z,2632.00
2019-05-22T11:35:08.949Z,2620.00
2019-05-22T11:36:08.888Z,2600.00
2019-05-22T11:37:08.820Z,2592.00
2019-05-22T11:38:08.749Z,2592.00
2019-05-22T11:39:08.688Z,2584.00
2019-05-22T11:40:08.627Z,2564.00
2019-05-22T11:41:08.553Z,2564.00
2019-05-22T11:42:08.493Z,2544.00
2019-05-22T11:43:08.425Z,2520.00
2019-05-22T11:44:08.361Z,2508.00
2019-05-22T11:45:08.296Z,2500.00
2019-05-22T11:46:08.230Z,2492.00
2019-05-22T11:47:08.167Z,2480.00
2019-05-22T11:48:08.103Z,2460.00
2019-05-22T11:49:08.035Z,2448.00
2019-05-22T11:50:07.968Z,2432.00
2019-05-22T11:51:07.907Z,2416.00
2019-05-22T11:52:07.839Z,2412.00
2019-05-22T11:53:07.782Z,2400.00
2019-05-22T11:54:09.689Z,2404.00
2019-05-22T11:55:07.641Z,2392.00
2019-05-22T11:56:07.578Z,2364.00
2019-05-22T11:57:07.519Z,2348.00
2019-05-22T11:58:07.454Z,2312.00
2019-05-22T11:59:07.384Z,2312.00
2019-05-22T12:00:09.356Z,2280.00
2019-05-22T12:01:07.266Z,2292.00
2019-05-22T12:02:07.189Z,2264.00
2019-05-22T12:03:07.126Z,2276.00
2019-05-22T12:04:07.062Z,2272.00
2019-05-22T12:05:07.000Z,2260.00
2019-05-22T12:06:06.936Z,2252.00
2019-05-22T12:07:06.872Z,2236.00
2019-05-22T12:08:06.805Z,2216.00
2019-05-22T12:09:06.737Z,2208.00
2019-05-22T12:10:06.689Z,2192.00
2019-05-22T12:11:06.605Z,2176.00
2019-05-22T12:12:06.539Z,2160.00
2019-05-22T12:13:06.475Z,2152.00
2019-05-22T12:14:06.427Z,2140.00
2019-05-22T12:15:06.348Z,2120.00
2019-05-22T12:16:06.285Z,2108.00
2019-05-22T12:17:06.209Z,2092.00
2019-05-22T12:18:06.150Z,2080.00
2019-05-22T12:19:06.088Z,2068.00
2019-05-22T12:20:06.023Z,2044.00
2019-05-22T12:21:05.958Z,2032.00
2019-05-22T12:22:05.938Z,2016.00
2019-05-22T12:23:05.824Z,2008.00
2019-05-22T12:24:05.761Z,2000.00
2019-05-22T12:25:05.697Z,1988.00
2019-05-22T12:26:05.632Z,1972.00
2019-05-22T12:27:05.570Z,1956.00
2019-05-22T12:28:05.510Z,1948.00
2019-05-22T12:29:05.434Z,1936.00
2019-05-22T12:30:05.558Z,1932.00
2019-05-22T12:31:05.313Z,1932.00
2019-05-22T12:32:05.243Z,1920.00